Time;durP1;ratioP1;P1;durP2;ratioP2;P2;SDS_P1;SDS_P2;PMS_P1;PMS_P2;Temp;Humidity;BMP_temperature;BMP_pressure;BME280_temperature;BME280_humidity;BME280_pressure;Samples;Min_cycle;Max_cycle;Signal;HPM_P1;HPM_P2
2022/04/17 00:00:48;;;;;;;52.83;21.75;;;;;;;;;;5038649;28;20428;-63
2022/04/17 00:03:14;;;;;;;46.42;21.52;;;;;;;;;;5041039;28;20059;-64
2022/04/17 00:05:41;;;;;;;49.17;22.27;;;;;;;;;;5041688;28;20136;-63
2022/04/17 00:08:08;;;;;;;40.30;20.55;;;;;;;;;;5035770;28;20133;-63
2022/04/17 00:10:35;;;;;;;56.08;21.42;;;;;;;;;;5040131;28;20468;-63
2022/04/17 00:13:01;;;;;;;47.92;21.35;;;;;;;;;;5040087;28;20779;-63
2022/04/17 00:15:27;;;;;;;53.10;21.90;;;;;;;;;;5044016;28;20457;-63
2022/04/17 00:17:58;;;;;;;59.03;22.95;;;;;;;;;;5037737;28;20053;-63
2022/04/17 00:20:24;;;;;;;56.70;23.10;;;;;;;;;;5043466;28;20135;-64
2022/04/17 00:22:51;;;;;;;50.85;22.95;;;;;;;;;;5039146;28;20144;-64
2022/04/17 00:25:18;;;;;;;59.25;22.23;;;;;;;;;;5042350;28;20136;-63
2022/04/17 00:27:44;;;;;;;50.63;22.20;;;;;;;;;;5040504;28;20565;-63
2022/04/17 00:30:11;;;;;;;54.03;22.90;;;;;;;;;;5040541;28;20084;-61
2022/04/17 00:32:42;;;;;;;39.40;18.48;;;;;;;;;;5038754;28;20140;-63
2022/04/17 00:35:09;;;;;;;47.30;23.00;;;;;;;;;;5037057;28;20508;-63
2022/04/17 00:37:36;;;;;;;62.33;23.20;;;;;;;;;;5038268;28;20478;-63
2022/04/17 00:40:03;;;;;;;;;;;;;;;;;;5041827;28;20224;-63
2022/04/17 00:42:29;;;;;;;51.40;22.67;;;;;;;;;;5039452;28;19971;-63
2022/04/17 00:44:56;;;;;;;63.78;24.13;;;;;;;;;;5043078;28;20045;-63
2022/04/17 00:47:22;;;;;;;66.83;24.63;;;;;;;;;;5039011;28;20132;-63
2022/04/17 00:49:49;;;;;;;54.97;21.25;;;;;;;;;;5041225;28;20148;-63
2022/04/17 00:52:16;;;;;;;62.80;24.83;;;;;;;;;;5036006;28;20052;-61
2022/04/17 00:54:44;;;;;;;42.10;17.42;;;;;;;;;;5039180;28;20084;-61
2022/04/17 00:57:12;;;;;;;56.55;22.42;;;;;;;;;;5038132;28;20490;-61
2022/04/17 00:59:41;;;;;;;57.47;20.98;;;;;;;;;;5041277;28;20143;-61
2022/04/17 01:02:07;;;;;;;48.78;19.08;;;;;;;;;;5039957;28;20088;-63
2022/04/17 01:04:34;;;;;;;45.67;16.05;;;;;;;;;;5038738;28;20046;-63
2022/04/17 01:07:02;;;;;;;48.78;19.77;;;;;;;;;;5037566;28;20140;-63
2022/04/17 01:09:29;;;;;;;53.40;21.85;;;;;;;;;;5040474;28;20144;-63
2022/04/17 01:12:03;;;;;;;56.90;20.58;;;;;;;;;;5038644;28;20495;-63
2022/04/17 01:14:30;;;;;;;66.63;21.98;;;;;;;;;;5037140;28;20167;-63
2022/04/17 01:16:56;;;;;;;49.10;21.42;;;;;;;;;;5040218;28;20125;-63
2022/04/17 01:19:23;;;;;;;55.33;20.73;;;;;;;;;;5039735;28;20240;-61
2022/04/17 01:21:50;;;;;;;34.67;14.60;;;;;;;;;;5043843;28;20570;-63
2022/04/17 01:27:07;;;;;;;54.95;19.55;;;;;;;;;;5027158;28;20088;-63
2022/04/17 01:29:37;;;;;;;48.20;18.58;;;;;;;;;;5039166;28;20145;-62
2022/04/17 01:32:05;;;;;;;53.78;20.20;;;;;;;;;;5039618;28;20081;-61
2022/04/17 01:34:33;;;;;;;55.83;20.27;;;;;;;;;;5040147;28;20153;-61
2022/04/17 01:37:00;;;;;;;51.40;19.73;;;;;;;;;;5043223;28;20096;-61
2022/04/17 01:39:26;;;;;;;;;;;;;;;;;;5038146;28;20476;-61
2022/04/17 01:41:56;;;;;;;42.13;17.30;;;;;;;;;;5038470;28;20007;-64
2022/04/17 01:44:24;;;;;;;42.70;14.25;;;;;;;;;;5038231;28;20061;-63
2022/04/17 01:46:50;;;;;;;;;;;;;;;;;;5036207;28;20081;-61
2022/04/17 01:49:17;;;;;;;51.90;20.25;;;;;;;;;;5038662;28;19932;-61
2022/04/17 01:51:45;;;;;;;49.92;20.38;;;;;;;;;;5019770;28;20141;-61
2022/04/17 01:54:11;;;;;;;;;;;;;;;;;;5015700;28;20049;-61
2022/04/17 01:56:42;;;;;;;48.60;19.20;;;;;;;;;;5014913;28;20444;-61
2022/04/17 01:59:09;;;;;;;49.55;20.98;;;;;;;;;;5015989;28;20050;-61
2022/04/17 02:01:36;;;;;;;54.10;19.83;;;;;;;;;;5018277;28;20128;-61
2022/04/17 02:04:06;;;;;;;52.22;20.42;;;;;;;;;;5012413;28;20633;-61
2022/04/17 02:06:32;;;;;;;58.58;20.30;;;;;;;;;;5016553;28;20054;-61
2022/04/17 02:08:58;;;;;;;51.47;17.08;;;;;;;;;;5017237;28;20552;-61
2022/04/17 02:11:32;;;;;;;46.47;15.85;;;;;;;;;;5019810;28;20160;-61
2022/04/17 02:13:58;;;;;;;41.53;16.48;;;;;;;;;;5018536;28;20781;-61
2022/04/17 02:16:24;;;;;;;50.65;18.40;;;;;;;;;;5017718;28;20137;-61
2022/04/17 02:18:53;;;;;;;52.60;18.15;;;;;;;;;;5018661;28;20045;-61
2022/04/17 02:21:20;;;;;;;41.95;14.55;;;;;;;;;;5019172;28;20085;-61
2022/04/17 02:23:49;;;;;;;48.63;18.80;;;;;;;;;;5020478;28;20042;-61
2022/04/17 02:26:17;;;;;;;52.03;17.88;;;;;;;;;;5019188;28;20080;-61
2022/04/17 02:28:43;;;;;;;47.63;18.98;;;;;;;;;;5018380;28;20461;-63
2022/04/17 02:31:10;;;;;;;53.10;19.00;;;;;;;;;;5022748;28;20133;-63
2022/04/17 02:33:38;;;;;;;39.60;15.73;;;;;;;;;;5017556;28;20049;-63
2022/04/17 02:36:05;;;;;;;38.00;15.32;;;;;;;;;;5019856;28;20132;-63
2022/04/17 02:38:32;;;;;;;36.20;16.35;;;;;;;;;;5017564;28;20088;-63
2022/04/17 02:40:59;;;;;;;46.38;16.45;;;;;;;;;;5018057;28;20132;-63
2022/04/17 02:43:25;;;;;;;45.90;16.63;;;;;;;;;;5016526;28;20138;-63
2022/04/17 02:45:52;;;;;;;38.70;12.98;;;;;;;;;;5019009;28;20096;-60
2022/04/17 02:48:19;;;;;;;41.35;15.18;;;;;;;;;;5023723;28;20071;-61
2022/04/17 02:50:47;;;;;;;45.97;15.63;;;;;;;;;;5036786;28;20092;-61
2022/04/17 02:53:16;;;;;;;46.85;16.17;;;;;;;;;;5039932;28;20133;-61
2022/04/17 02:55:44;;;;;;;46.17;17.17;;;;;;;;;;5040973;28;20083;-61
2022/04/17 02:58:10;;;;;;;60.50;12.27;;;;;;;;;;5043017;28;20145;-60
2022/04/17 03:05:36;;;;;;;41.40;15.57;;;;;;;;;;5040059;28;20149;-61
2022/04/17 03:06:20;;;;;;;41.17;14.50;;;;;;;;;;5019959;28;20140;-61
2022/04/17 03:08:53;;;;;;;53.15;15.15;;;;;;;;;;5020818;28;20136;-61
2022/04/17 03:11:20;;;;;;;45.15;16.38;;;;;;;;;;5036673;28;20144;-60
2022/04/17 03:13:48;;;;;;;44.83;15.93;;;;;;;;;;5042963;28;20093;-61
2022/04/17 03:16:15;;;;;;;42.00;15.57;;;;;;;;;;5039148;28;20128;-61
2022/04/17 03:18:42;;;;;;;39.42;14.80;;;;;;;;;;5037935;28;20417;-61
2022/04/17 03:21:09;;;;;;;44.47;15.75;;;;;;;;;;5039907;28;20214;-61
2022/04/17 03:23:38;;;;;;;41.80;15.45;;;;;;;;;;5040083;28;20136;-61
2022/04/17 03:26:05;;;;;;;40.58;14.57;;;;;;;;;;5042684;28;20045;-61
2022/04/17 03:28:32;;;;;;;46.45;16.45;;;;;;;;;;5042193;28;20072;-61
2022/04/17 03:31:05;;;;;;;33.45;11.85;;;;;;;;;;5043779;28;20135;-60
2022/04/17 03:33:32;;;;;;;44.10;14.75;;;;;;;;;;5040446;28;20132;-60
2022/04/17 03:35:58;;;;;;;41.70;13.15;;;;;;;;;;5044261;28;20045;-61
2022/04/17 03:38:26;;;;;;;39.78;14.07;;;;;;;;;;5044181;28;20136;-60
2022/04/17 03:40:52;;;;;;;38.85;12.55;;;;;;;;;;5045332;28;20080;-61
2022/04/17 03:43:19;;;;;;;29.15;9.43;;;;;;;;;;5039662;28;20123;-61
2022/04/17 03:45:53;;;;;;;38.22;12.45;;;;;;;;;;5030954;28;20808;-61
2022/04/17 03:48:19;;;;;;;31.75;13.07;;;;;;;;;;5042725;28;20131;-61
2022/04/17 03:50:47;;;;;;;36.45;14.95;;;;;;;;;;5040085;28;20141;-61
2022/04/17 03:53:14;;;;;;;45.70;14.40;;;;;;;;;;5040629;28;20076;-61
2022/04/17 03:55:41;;;;;;;37.08;11.85;;;;;;;;;;5040133;28;20132;-61
2022/04/17 03:58:08;;;;;;;41.85;16.05;;;;;;;;;;5039946;28;20144;-61
2022/04/17 04:00:34;;;;;;;44.35;16.15;;;;;;;;;;5037138;28;20136;-61
2022/04/17 04:03:03;;;;;;;51.35;17.02;;;;;;;;;;5037356;28;20049;-60
2022/04/17 04:05:29;;;;;;;48.87;17.50;;;;;;;;;;5041024;28;20145;-61
2022/04/17 04:07:56;;;;;;;39.20;14.65;;;;;;;;;;5040788;28;20528;-61
2022/04/17 04:10:22;;;;;;;52.17;16.13;;;;;;;;;;5043931;28;20144;-61
2022/04/17 04:12:48;;;;;;;54.80;16.85;;;;;;;;;;5042863;28;20130;-61
2022/04/17 04:15:16;;;;;;;46.83;16.95;;;;;;;;;;5039945;28;20041;-61
2022/04/17 04:17:42;;;;;;;41.28;14.77;;;;;;;;;;5039024;28;20164;-61
2022/04/17 04:20:09;;;;;;;45.65;15.43;;;;;;;;;;5040850;28;20583;-61
2022/04/17 04:22:38;;;;;;;45.03;15.05;;;;;;;;;;5039523;28;20049;-61
2022/04/17 04:25:05;;;;;;;45.38;15.73;;;;;;;;;;5039507;28;20139;-61
2022/04/17 04:30:16;;;;;;;40.20;16.17;;;;;;;;;;5040051;28;20088;-61
2022/04/17 04:32:53;;;;;;;37.63;13.02;;;;;;;;;;5038728;28;20163;-61
2022/04/17 04:35:20;;;;;;;51.33;15.25;;;;;;;;;;5038868;28;20061;-61
2022/04/17 04:37:47;;;;;;;35.80;13.63;;;;;;;;;;5037037;28;20104;-61
2022/04/17 04:40:15;;;;;;;38.95;14.48;;;;;;;;;;5042641;28;20092;-64
2022/04/17 04:42:42;;;;;;;36.95;13.80;;;;;;;;;;5043265;28;20068;-64
2022/04/17 04:47:54;;;;;;;33.25;12.98;;;;;;;;;;5038982;28;20132;-64
2022/04/17 04:50:20;;;;;;;33.72;12.52;;;;;;;;;;5038803;28;20107;-64
2022/04/17 04:52:47;;;;;;;40.28;13.00;;;;;;;;;;5042886;28;20132;-64
2022/04/17 04:55:14;;;;;;;22.42;9.50;;;;;;;;;;5043798;28;20081;-64
2022/04/17 04:57:40;;;;;;;23.60;10.80;;;;;;;;;;5039955;28;20110;-64
2022/04/17 05:00:07;;;;;;;25.95;11.68;;;;;;;;;;5035353;28;20128;-64
2022/04/17 05:02:41;;;;;;;35.50;11.52;;;;;;;;;;5040156;28;20135;-64
2022/04/17 05:05:08;;;;;;;27.45;9.43;;;;;;;;;;5042618;28;20116;-64
2022/04/17 05:07:34;;;;;;;19.33;8.27;;;;;;;;;;5037017;28;20085;-64
2022/04/17 05:10:08;;;;;;;29.58;9.90;;;;;;;;;;5039537;28;20132;-64
2022/04/17 05:12:36;;;;;;;25.08;9.52;;;;;;;;;;5042837;28;20047;-64
2022/04/17 05:15:03;;;;;;;34.80;10.93;;;;;;;;;;5039665;28;20143;-65
2022/04/17 05:17:32;;;;;;;34.28;12.15;;;;;;;;;;5036166;28;20144;-65
2022/04/17 05:19:59;;;;;;;35.00;12.38;;;;;;;;;;5037665;28;20053;-65
2022/04/17 05:22:31;;;;;;;33.03;10.90;;;;;;;;;;5036756;28;20067;-65
2022/04/17 05:25:09;;;;;;;26.23;10.43;;;;;;;;;;5041141;28;20077;-65
2022/04/17 05:27:36;;;;;;;31.88;10.48;;;;;;;;;;5038661;28;20137;-65
2022/04/17 05:30:02;;;;;;;27.17;11.10;;;;;;;;;;5035178;28;20140;-65
2022/04/17 05:32:36;;;;;;;27.10;10.40;;;;;;;;;;5039988;28;20089;-65
2022/04/17 05:35:03;;;;;;;30.40;9.90;;;;;;;;;;5038652;28;20643;-66
2022/04/17 05:37:30;;;;;;;23.70;10.13;;;;;;;;;;5038311;28;20088;-65
2022/04/17 05:39:56;;;;;;;25.73;10.18;;;;;;;;;;5037147;28;20544;-65
2022/04/17 05:42:23;;;;;;;27.55;9.95;;;;;;;;;;5043056;28;20123;-65
2022/04/17 05:44:50;;;;;;;33.88;10.27;;;;;;;;;;5038390;28;20545;-65
2022/04/17 05:47:17;;;;;;;35.65;11.50;;;;;;;;;;5039612;28;20162;-65
2022/04/17 05:49:43;;;;;;;27.80;11.10;;;;;;;;;;5042062;28;20140;-65
2022/04/17 05:52:11;;;;;;;27.87;11.20;;;;;;;;;;5041679;28;20048;-66
2022/04/17 05:54:41;;;;;;;37.58;12.02;;;;;;;;;;5039553;28;20136;-66
2022/04/17 05:57:07;;;;;;;25.52;10.57;;;;;;;;;;5040895;28;20123;-66
2022/04/17 05:59:34;;;;;;;31.73;11.70;;;;;;;;;;5041536;28;20152;-65
2022/04/17 06:02:01;;;;;;;30.95;11.43;;;;;;;;;;5039743;28;20062;-65
2022/04/17 06:04:28;;;;;;;21.93;11.20;;;;;;;;;;5041744;28;20045;-66
2022/04/17 06:06:54;;;;;;;34.88;12.80;;;;;;;;;;5042312;28;20206;-66
2022/04/17 06:09:21;;;;;;;31.83;10.38;;;;;;;;;;5039042;28;20144;-66
2022/04/17 06:11:48;;;;;;;29.08;9.85;;;;;;;;;;5041907;28;20041;-66
2022/04/17 06:14:14;;;;;;;23.50;10.20;;;;;;;;;;5040589;28;20081;-66
2022/04/17 06:16:41;;;;;;;22.97;9.03;;;;;;;;;;5042371;28;20061;-67
2022/04/17 06:19:09;;;;;;;25.65;9.02;;;;;;;;;;5037253;28;20561;-68
2022/04/17 06:21:38;;;;;;;22.80;7.70;;;;;;;;;;5042352;28;20068;-67
2022/04/17 06:24:06;;;;;;;26.33;8.27;;;;;;;;;;5044409;28;20053;-67
2022/04/17 06:26:33;;;;;;;25.37;8.87;;;;;;;;;;5041983;28;20487;-68
2022/04/17 06:29:03;;;;;;;26.95;8.82;;;;;;;;;;5037335;28;20468;-68
2022/04/17 06:31:37;;;;;;;15.00;7.18;;;;;;;;;;5038435;28;20464;-68
2022/04/17 06:34:03;;;;;;;;;;;;;;;;;;5040202;28;20107;-68
2022/04/17 06:36:30;;;;;;;16.95;7.05;;;;;;;;;;5043898;28;20380;-68
2022/04/17 06:39:03;;;;;;;19.05;6.57;;;;;;;;;;5044987;28;20124;-68
2022/04/17 06:41:29;;;;;;;20.33;6.70;;;;;;;;;;5041424;28;20489;-68
2022/04/17 06:43:55;;;;;;;21.00;7.05;;;;;;;;;;5041146;28;20057;-68
2022/04/17 06:46:22;;;;;;;15.27;6.22;;;;;;;;;;5039273;28;20124;-68
2022/04/17 06:48:48;;;;;;;18.73;6.35;;;;;;;;;;5039983;28;20139;-69
2022/04/17 06:51:15;;;;;;;14.88;6.15;;;;;;;;;;5044298;28;20139;-69
2022/04/17 06:53:42;;;;;;;18.65;6.35;;;;;;;;;;5042196;28;20136;-69
2022/04/17 06:56:12;;;;;;;19.37;6.00;;;;;;;;;;5043842;28;20084;-69
2022/04/17 06:58:38;;;;;;;24.63;5.90;;;;;;;;;;5022960;28;20075;-69
2022/04/17 07:01:05;;;;;;;14.23;5.70;;;;;;;;;;5044138;28;20483;-68
2022/04/17 07:03:33;;;;;;;13.80;6.07;;;;;;;;;;5042282;28;20142;-67
2022/04/17 07:05:59;;;;;;;13.40;6.45;;;;;;;;;;5040546;28;20132;-67
2022/04/17 07:08:28;;;;;;;15.57;5.53;;;;;;;;;;5043294;28;20132;-67
2022/04/17 07:10:55;;;;;;;18.05;5.65;;;;;;;;;;5040386;28;20073;-67
2022/04/17 07:13:21;;;;;;;16.95;6.28;;;;;;;;;;5040666;28;20144;-67
2022/04/17 07:15:48;;;;;;;13.30;5.03;;;;;;;;;;5042898;28;20132;-67
2022/04/17 07:18:15;;;;;;;10.70;5.28;;;;;;;;;;5040466;28;20055;-68
2022/04/17 07:20:41;;;;;;;10.70;5.60;;;;;;;;;;5038724;28;20080;-68
2022/04/17 07:23:10;;;;;;;9.93;4.53;;;;;;;;;;5044150;28;20136;-67
2022/04/17 07:25:36;;;;;;;11.40;4.80;;;;;;;;;;5040781;28;20602;-68
2022/04/17 07:28:03;;;;;;;12.10;4.43;;;;;;;;;;5042959;28;20459;-68
2022/04/17 07:30:30;;;;;;;7.30;4.40;;;;;;;;;;5037657;28;20045;-68
2022/04/17 07:32:58;;;;;;;10.63;5.47;;;;;;;;;;5043116;28;20132;-68
2022/04/17 07:35:25;;;;;;;8.85;3.85;;;;;;;;;;5037083;28;20140;-68
2022/04/17 07:38:03;;;;;;;10.05;4.72;;;;;;;;;;5042685;28;20132;-68
2022/04/17 07:40:30;;;;;;;11.18;4.30;;;;;;;;;;5039408;28;20096;-69
2022/04/17 07:42:58;;;;;;;10.25;3.97;;;;;;;;;;5041739;28;20084;-68
2022/04/17 07:45:27;;;;;;;10.98;4.22;;;;;;;;;;5037416;28;20045;-69
2022/04/17 07:47:53;;;;;;;7.20;3.58;;;;;;;;;;5039405;28;20562;-69
2022/04/17 07:50:23;;;;;;;5.88;3.25;;;;;;;;;;5042406;28;20477;-69
2022/04/17 07:52:50;;;;;;;7.38;3.08;;;;;;;;;;5037885;28;20057;-69
2022/04/17 07:55:17;;;;;;;4.38;2.88;;;;;;;;;;5043036;28;20045;-69
2022/04/17 08:00:57;;;;;;;6.15;2.90;;;;;;;;;;5008349;28;20124;-69
2022/04/17 08:03:34;;;;;;;6.13;2.90;;;;;;;;;;5039686;28;20063;-68
2022/04/17 08:06:05;;;;;;;6.97;2.72;;;;;;;;;;5039256;28;20102;-69
2022/04/17 08:08:32;;;;;;;6.20;2.72;;;;;;;;;;5037996;28;20057;-69
2022/04/17 08:10:59;;;;;;;7.53;2.47;;;;;;;;;;5036994;28;20131;-69
2022/04/17 08:13:25;;;;;;;7.13;2.70;;;;;;;;;;5038157;28;20750;-69
2022/04/17 08:15:52;;;;;;;4.85;2.33;;;;;;;;;;5036160;28;20427;-69
2022/04/17 08:18:18;;;;;;;5.22;2.53;;;;;;;;;;5038911;28;20516;-70
2022/04/17 08:20:52;;;;;;;4.55;2.17;;;;;;;;;;5036643;28;20119;-69
2022/04/17 08:23:18;;;;;;;4.45;1.95;;;;;;;;;;5039026;28;20591;-69
2022/04/17 08:25:46;;;;;;;4.05;2.03;;;;;;;;;;5039342;28;20156;-70
2022/04/17 08:28:16;;;;;;;3.13;1.95;;;;;;;;;;5038489;28;20167;-70
2022/04/17 08:30:42;;;;;;;3.35;2.03;;;;;;;;;;5035436;28;20083;-71
2022/04/17 08:33:08;;;;;;;4.72;1.85;;;;;;;;;;5039072;28;20095;-70
2022/04/17 08:35:35;;;;;;;6.18;1.95;;;;;;;;;;5037321;28;20535;-70
2022/04/17 08:38:02;;;;;;;4.47;1.58;;;;;;;;;;5037560;28;20569;-70
2022/04/17 08:40:29;;;;;;;3.55;1.65;;;;;;;;;;5041266;28;20053;-70
2022/04/17 08:43:03;;;;;;;3.47;1.60;;;;;;;;;;5038227;28;21579;-74
2022/04/17 08:45:29;;;;;;;4.53;1.70;;;;;;;;;;5039299;28;20045;-71
2022/04/17 08:47:56;;;;;;;4.25;1.73;;;;;;;;;;5037834;28;20045;-71
2022/04/17 08:50:26;;;;;;;2.25;1.20;;;;;;;;;;5036501;28;20141;-70
2022/04/17 08:52:53;;;;;;;5.05;1.63;;;;;;;;;;5043021;28;20138;-71
2022/04/17 08:55:20;;;;;;;4.03;1.40;;;;;;;;;;5038966;28;20068;-71
2022/04/17 08:57:47;;;;;;;3.10;1.65;;;;;;;;;;5039386;28;20073;-71
2022/04/17 09:00:17;;;;;;;3.45;1.50;;;;;;;;;;5041644;28;20049;-71
2022/04/17 09:02:44;;;;;;;3.08;1.40;;;;;;;;;;5037763;28;20053;-71
2022/04/17 09:05:14;;;;;;;3.20;1.70;;;;;;;;;;5034486;28;20041;-71
2022/04/17 09:07:41;;;;;;;3.60;1.60;;;;;;;;;;5042673;28;20080;-71
2022/04/17 09:10:08;;;;;;;5.75;1.80;;;;;;;;;;5041342;28;20087;-71
2022/04/17 09:12:44;;;;;;;3.95;1.55;;;;;;;;;;5039732;28;20056;-71
2022/04/17 09:15:10;;;;;;;2.17;1.50;;;;;;;;;;5038717;28;20140;-71
2022/04/17 09:17:37;;;;;;;2.13;1.25;;;;;;;;;;5038642;28;20092;-71
2022/04/17 09:20:17;;;;;;;3.28;1.40;;;;;;;;;;5038612;28;20774;-70
2022/04/17 09:22:47;;;;;;;2.78;1.33;;;;;;;;;;5039644;28;20114;-71
2022/04/17 09:25:16;;;;;;;3.72;1.30;;;;;;;;;;5036567;28;20080;-71
2022/04/17 09:28:09;;;;;;;2.92;1.52;;;;;;;;;;5041187;28;20513;-71
2022/04/17 09:30:39;;;;;;;3.67;1.60;;;;;;;;;;5035627;28;20088;-71
2022/04/17 09:33:06;;;;;;;2.20;1.50;;;;;;;;;;5040438;28;20068;-71
2022/04/17 09:35:33;;;;;;;4.97;1.38;;;;;;;;;;5037284;28;20543;-71
2022/04/17 09:38:05;;;;;;;2.78;1.40;;;;;;;;;;5042358;28;20103;-71
2022/04/17 09:40:32;;;;;;;2.72;1.50;;;;;;;;;;5034659;28;20088;-71
2022/04/17 09:43:17;;;;;;;3.78;1.40;;;;;;;;;;5035057;28;20076;-71
2022/04/17 09:45:57;;;;;;;4.10;1.30;;;;;;;;;;5031752;28;20123;-71
2022/04/17 09:48:24;;;;;;;3.75;1.58;;;;;;;;;;5035172;28;20055;-71
2022/04/17 09:50:58;;;;;;;3.80;1.25;;;;;;;;;;5023243;28;20077;-71
2022/04/17 09:53:38;;;;;;;1.90;1.55;;;;;;;;;;5013094;28;20152;-71
2022/04/17 09:56:10;;;;;;;7.57;1.42;;;;;;;;;;5014432;28;20077;-71
2022/04/17 09:58:42;;;;;;;1.35;1.20;;;;;;;;;;5014761;28;20573;-71
2022/04/17 10:01:18;;;;;;;6.13;1.25;;;;;;;;;;5014296;28;20053;-71
2022/04/17 10:03:46;;;;;;;2.20;1.30;;;;;;;;;;5013709;28;20081;-72
2022/04/17 10:06:12;;;;;;;2.35;0.98;;;;;;;;;;5013813;28;20172;-71
2022/04/17 10:08:42;;;;;;;4.07;1.17;;;;;;;;;;5012742;28;20061;-71
2022/04/17 10:11:10;;;;;;;2.17;1.10;;;;;;;;;;5011151;28;20069;-72
2022/04/17 10:13:38;;;;;;;2.00;1.10;;;;;;;;;;5011107;28;20129;-72
2022/04/17 10:16:06;;;;;;;2.53;1.10;;;;;;;;;;5015894;28;20080;-72
2022/04/17 10:18:41;;;;;;;3.65;0.88;;;;;;;;;;5013405;28;21139;-74
2022/04/17 10:21:09;;;;;;;2.05;1.38;;;;;;;;;;5013922;28;20084;-72
2022/04/17 10:23:36;;;;;;;2.58;1.33;;;;;;;;;;5013370;28;20059;-73
2022/04/17 10:26:03;;;;;;;2.55;1.20;;;;;;;;;;5013415;28;20569;-72
2022/04/17 10:28:39;;;;;;;2.03;1.00;;;;;;;;;;5016787;28;20144;-73
2022/04/17 10:31:06;;;;;;;1.58;0.88;;;;;;;;;;5017373;28;20042;-73
2022/04/17 10:33:56;;;;;;;1.35;0.88;;;;;;;;;;5017938;28;20064;-72
2022/04/17 10:36:27;;;;;;;2.08;1.00;;;;;;;;;;5005118;28;20152;-72
2022/04/17 10:38:54;;;;;;;1.88;1.02;;;;;;;;;;5017435;28;20042;-72
2022/04/17 10:41:20;;;;;;;3.08;1.17;;;;;;;;;;5016328;28;20041;-72
2022/04/17 10:43:58;;;;;;;2.72;1.13;;;;;;;;;;5015685;28;20053;-73
2022/04/17 10:46:25;;;;;;;1.42;0.88;;;;;;;;;;5018975;28;20569;-72
2022/04/17 10:48:52;;;;;;;8.35;1.33;;;;;;;;;;4999202;28;20497;-73
2022/04/17 10:51:19;;;;;;;3.45;1.02;;;;;;;;;;5018555;28;20074;-72
2022/04/17 10:53:51;;;;;;;2.47;1.00;;;;;;;;;;5016129;28;20521;-72
2022/04/17 10:56:18;;;;;;;1.60;0.90;;;;;;;;;;5020024;28;20069;-73
2022/04/17 10:58:55;;;;;;;4.55;1.00;;;;;;;;;;5017716;28;20552;-72
2022/04/17 11:01:40;;;;;;;2.80;0.90;;;;;;;;;;5017343;28;20085;-72
2022/04/17 11:04:21;;;;;;;1.15;0.80;;;;;;;;;;5017222;28;20084;-72
2022/04/17 11:07:10;;;;;;;2.15;1.20;;;;;;;;;;5001298;28;20144;-72
2022/04/17 11:09:46;;;;;;;1.63;1.20;;;;;;;;;;5018046;28;20156;-72
2022/04/17 11:12:18;;;;;;;2.42;1.02;;;;;;;;;;5018986;28;20049;-73
2022/04/17 11:15:01;;;;;;;2.25;1.02;;;;;;;;;;5016972;28;20085;-73
2022/04/17 11:17:29;;;;;;;2.40;0.80;;;;;;;;;;5020513;28;20081;-73
2022/04/17 11:20:03;;;;;;;2.10;1.10;;;;;;;;;;5023744;28;20084;-73
2022/04/17 11:22:34;;;;;;;1.75;0.88;;;;;;;;;;5020991;28;20146;-72
2022/04/17 11:25:05;;;;;;;2.40;0.90;;;;;;;;;;5020265;28;20493;-73
2022/04/17 11:27:47;;;;;;;4.28;1.08;;;;;;;;;;5016020;28;20216;-72
2022/04/17 11:30:34;;;;;;;1.27;0.80;;;;;;;;;;5021743;28;20064;-73
2022/04/17 11:33:08;;;;;;;3.15;1.10;;;;;;;;;;5014796;28;20053;-73
2022/04/17 11:35:35;;;;;;;1.67;1.17;;;;;;;;;;5013824;28;20137;-72
2022/04/17 11:38:05;;;;;;;7.75;1.45;;;;;;;;;;5015569;28;20077;-74
2022/04/17 11:40:34;;;;;;;2.00;1.17;;;;;;;;;;5014857;28;20063;-73
2022/04/17 11:43:04;;;;;;;3.17;1.17;;;;;;;;;;5014535;28;20423;-73
2022/04/17 11:45:31;;;;;;;3.70;1.23;;;;;;;;;;5012932;28;20073;-73
2022/04/17 11:48:02;;;;;;;7.55;1.35;;;;;;;;;;5014431;28;20053;-73
2022/04/17 11:50:29;;;;;;;5.20;1.38;;;;;;;;;;5014529;28;20564;-74
2022/04/17 11:52:57;;;;;;;3.07;1.30;;;;;;;;;;5016339;28;20133;-73
2022/04/17 11:55:28;;;;;;;3.10;1.15;;;;;;;;;;5014206;28;20894;-72
2022/04/17 11:57:55;;;;;;;2.53;1.30;;;;;;;;;;5018759;28;20081;-73
2022/04/17 12:00:22;;;;;;;5.47;2.08;;;;;;;;;;5014511;28;20081;-73
2022/04/17 12:02:59;;;;;;;2.50;1.20;;;;;;;;;;5018774;28;20132;-73
2022/04/17 12:05:26;;;;;;;4.50;1.20;;;;;;;;;;5016087;28;20140;-72
2022/04/17 12:08:06;;;;;;;2.00;1.20;;;;;;;;;;5013956;28;20138;-73
2022/04/17 12:10:34;;;;;;;2.55;1.40;;;;;;;;;;5015280;28;20060;-73
2022/04/17 12:13:12;;;;;;;2.90;1.40;;;;;;;;;;5014176;28;20059;-73
2022/04/17 12:15:38;;;;;;;4.80;1.50;;;;;;;;;;5013223;28;20084;-73
2022/04/17 12:18:06;;;;;;;2.75;1.42;;;;;;;;;;5013870;28;20504;-72
2022/04/17 12:20:32;;;;;;;3.70;1.35;;;;;;;;;;5012364;28;20489;-73
2022/04/17 12:22:59;;;;;;;2.55;1.10;;;;;;;;;;5021770;28;20124;-73
2022/04/17 12:25:32;;;;;;;3.05;1.38;;;;;;;;;;5019308;28;20053;-73
2022/04/17 12:27:58;;;;;;;4.03;1.45;;;;;;;;;;5016892;28;20050;-72
2022/04/17 12:30:28;;;;;;;2.50;1.27;;;;;;;;;;5014471;28;20095;-73
2022/04/17 12:33:00;;;;;;;3.28;1.30;;;;;;;;;;5014789;28;20168;-73
2022/04/17 12:35:30;;;;;;;2.97;1.42;;;;;;;;;;5016131;28;20045;-73
2022/04/17 12:38:07;;;;;;;3.70;1.10;;;;;;;;;;5021134;28;20132;-72
2022/04/17 12:40:42;;;;;;;3.45;1.40;;;;;;;;;;5014804;28;20069;-72
2022/04/17 12:43:15;;;;;;;4.15;1.17;;;;;;;;;;5015962;28;20053;-72
2022/04/17 12:45:53;;;;;;;4.30;1.58;;;;;;;;;;5014276;28;20141;-72
2022/04/17 12:48:24;;;;;;;5.03;1.40;;;;;;;;;;5020687;28;20049;-72
2022/04/17 12:50:55;;;;;;;3.20;1.50;;;;;;;;;;5020207;28;20104;-72
2022/04/17 12:53:22;;;;;;;3.30;1.25;;;;;;;;;;5015871;28;20584;-72
2022/04/17 12:55:51;;;;;;;3.88;1.40;;;;;;;;;;5017875;28;20172;-72
2022/04/17 12:58:18;;;;;;;5.07;1.50;;;;;;;;;;5020428;28;20133;-72
2022/04/17 13:00:53;;;;;;;3.90;1.67;;;;;;;;;;5017616;28;20513;-72
2022/04/17 13:03:20;;;;;;;3.20;1.48;;;;;;;;;;5016501;28;20108;-72
2022/04/17 13:05:59;;;;;;;1.50;1.08;;;;;;;;;;5017510;28;20136;-72
2022/04/17 13:08:26;;;;;;;2.00;1.35;;;;;;;;;;5020087;28;20080;-72
2022/04/17 13:10:56;;;;;;;3.42;1.50;;;;;;;;;;5020131;28;20084;-71
2022/04/17 13:13:35;;;;;;;3.08;1.60;;;;;;;;;;5024732;28;20171;-72
2022/04/17 13:16:09;;;;;;;3.58;1.70;;;;;;;;;;5018727;28;20129;-72
2022/04/17 13:18:35;;;;;;;2.07;1.37;;;;;;;;;;5023181;28;20484;-72
2022/04/17 13:21:22;;;;;;;4.38;1.55;;;;;;;;;;5021822;28;20049;-72
2022/04/17 13:23:59;;;;;;;3.20;1.55;;;;;;;;;;5018591;28;20133;-72
2022/04/17 13:26:25;;;;;;;2.50;1.42;;;;;;;;;;5019308;28;20712;-71
2022/04/17 13:28:51;;;;;;;6.75;1.65;;;;;;;;;;5021157;28;20124;-72
2022/04/17 13:31:21;;;;;;;3.10;1.33;;;;;;;;;;5020211;28;20121;-72
2022/04/17 13:33:47;;;;;;;3.65;1.60;;;;;;;;;;5021540;28;20053;-73
2022/04/17 13:36:14;;;;;;;1.60;1.33;;;;;;;;;;5019299;28;20077;-72
2022/04/17 13:38:41;;;;;;;2.70;1.40;;;;;;;;;;5018872;28;20078;-71
2022/04/17 13:41:07;;;;;;;2.08;1.35;;;;;;;;;;5019419;28;20145;-72
2022/04/17 13:43:34;;;;;;;5.82;1.83;;;;;;;;;;5018459;28;20085;-72
2022/04/17 13:46:02;;;;;;;2.75;1.83;;;;;;;;;;5019503;28;20127;-72
2022/04/17 13:48:31;;;;;;;2.77;1.00;;;;;;;;;;5018857;28;20045;-71
2022/04/17 13:50:58;;;;;;;4.32;1.50;;;;;;;;;;5020375;28;20573;-72
2022/04/17 13:53:25;;;;;;;2.20;1.30;;;;;;;;;;5019758;28;20427;-71
2022/04/17 13:55:51;;;;;;;2.50;1.48;;;;;;;;;;5020078;28;20081;-72
2022/04/17 13:58:17;;;;;;;5.07;1.25;;;;;;;;;;5018711;28;20478;-72
2022/04/17 14:00:44;;;;;;;1.88;1.10;;;;;;;;;;5017639;28;20481;-72
2022/04/17 14:03:11;;;;;;;2.85;1.00;;;;;;;;;;5016642;28;20050;-71
2022/04/17 14:05:37;;;;;;;2.92;1.00;;;;;;;;;;5019902;28;20077;-71
2022/04/17 14:08:06;;;;;;;1.10;0.68;;;;;;;;;;5018255;28;20133;-72
2022/04/17 14:10:38;;;;;;;1.00;0.70;;;;;;;;;;5014532;28;20081;-71
2022/04/17 14:13:07;;;;;;;1.75;1.15;;;;;;;;;;5019900;28;20072;-71
2022/04/17 14:15:40;;;;;;;1.98;0.95;;;;;;;;;;5018743;28;20103;-71
2022/04/17 14:18:06;;;;;;;2.22;1.08;;;;;;;;;;5017782;28;20077;-71
2022/04/17 14:20:34;;;;;;;2.47;1.02;;;;;;;;;;5017704;28;20140;-71
2022/04/17 14:23:07;;;;;;;1.35;1.00;;;;;;;;;;5017789;28;20073;-71
2022/04/17 14:25:34;;;;;;;3.33;1.10;;;;;;;;;;5023153;28;20115;-70
2022/04/17 14:28:01;;;;;;;1.63;0.87;;;;;;;;;;5018116;28;20096;-71
2022/04/17 14:30:28;;;;;;;1.50;1.00;;;;;;;;;;5017464;28;20342;-71
2022/04/17 14:32:55;;;;;;;2.23;1.00;;;;;;;;;;5018604;28;20092;-71
2022/04/17 14:35:21;;;;;;;1.65;0.93;;;;;;;;;;5020912;28;20133;-71
2022/04/17 14:37:48;;;;;;;1.30;1.00;;;;;;;;;;5016835;28;20137;-71
2022/04/17 14:40:14;;;;;;;1.40;1.00;;;;;;;;;;5001775;28;20569;-71
2022/04/17 14:42:40;;;;;;;3.03;1.08;;;;;;;;;;5021970;28;20132;-70
2022/04/17 14:45:08;;;;;;;1.73;0.75;;;;;;;;;;5013788;28;20677;-71
2022/04/17 14:47:36;;;;;;;1.75;0.77;;;;;;;;;;5022329;28;20133;-70
2022/04/17 14:50:02;;;;;;;2.38;1.13;;;;;;;;;;5022589;28;20053;-69
2022/04/17 14:52:29;;;;;;;1.85;0.80;;;;;;;;;;5042083;28;20140;-71
2022/04/17 14:54:56;;;;;;;1.37;0.90;;;;;;;;;;5040271;28;20136;-71
2022/04/17 14:57:22;;;;;;;1.00;0.90;;;;;;;;;;5037749;28;20137;-70